createdAt,value
2022-12-31T00:00:12.065Z,86.67
2022-12-31T00:02:39.879Z,87.21
2022-12-31T00:05:07.692Z,87.50
2022-12-31T00:10:03.384Z,88.15
2022-12-31T00:12:30.057Z,88.75
2022-12-31T00:14:56.772Z,88.91
2022-12-31T00:17:23.403Z,88.71
2022-12-31T00:19:50.064Z,89.14
2022-12-31T00:22:16.728Z,90.01
2022-12-31T00:24:43.438Z,89.84
2022-12-31T00:27:10.124Z,89.89
2022-12-31T00:29:36.795Z,89.99
2022-12-31T00:32:06.536Z,90.01
2022-12-31T00:34:33.166Z,90.02
2022-12-31T00:36:59.779Z,89.89
2022-12-31T00:39:26.476Z,89.50
2022-12-31T00:41:53.113Z,89.93
2022-12-31T00:44:19.869Z,89.97
2022-12-31T00:46:46.592Z,89.44
2022-12-31T00:49:13.227Z,89.09
2022-12-31T00:51:39.912Z,89.44
2022-12-31T00:54:06.590Z,88.89
2022-12-31T00:56:33.204Z,88.33
2022-12-31T00:59:00.897Z,87.90
2022-12-31T01:01:31.648Z,87.82
2022-12-31T01:04:05.612Z,87.41
2022-12-31T01:06:32.931Z,87.22
2022-12-31T01:08:59.690Z,87.31
2022-12-31T01:11:29.449Z,86.89
2022-12-31T01:14:00.449Z,86.01
2022-12-31T01:16:32.926Z,86.39
2022-12-31T01:19:03.421Z,85.71
2022-12-31T01:21:31.073Z,85.61
2022-12-31T01:23:59.220Z,85.47
2022-12-31T01:26:27.498Z,85.00
2022-12-31T01:28:54.381Z,85.54
2022-12-31T01:31:23.768Z,84.86
2022-12-31T01:33:51.902Z,85.97
2022-12-31T01:36:26.613Z,86.17
2022-12-31T01:38:57.161Z,85.82
2022-12-31T01:41:32.091Z,86.02
2022-12-31T01:44:23.190Z,86.10
2022-12-31T01:46:55.319Z,84.96
2022-12-31T01:49:45.301Z,84.44
2022-12-31T01:52:21.306Z,83.23
2022-12-31T01:54:55.162Z,82.76
2022-12-31T01:57:22.982Z,81.40
2022-12-31T01:59:50.243Z,81.27
2022-12-31T02:02:17.541Z,81.06
2022-12-31T02:04:44.495Z,81.01
2022-12-31T02:07:12.785Z,80.96
2022-12-31T02:09:41.996Z,79.67
2022-12-31T02:12:09.947Z,79.83
2022-12-31T02:14:46.328Z,79.49
2022-12-31T02:18:06.814Z,79.95
2022-12-31T02:21:24.435Z,79.89
2022-12-31T02:24:17.583Z,79.57
2022-12-31T02:27:16.623Z,79.53
2022-12-31T02:30:14.420Z,79.40
2022-12-31T02:33:20.639Z,79.41
2022-12-31T02:36:13.021Z,79.23
2022-12-31T02:38:45.450Z,78.91
2022-12-31T02:41:37.531Z,79.31
2022-12-31T02:44:27.676Z,79.86
2022-12-31T02:47:09.404Z,78.77
2022-12-31T02:49:58.863Z,77.96
2022-12-31T02:52:43.681Z,77.95
2022-12-31T02:55:35.363Z,77.38
2022-12-31T02:58:45.028Z,77.42
2022-12-31T03:01:34.836Z,76.82
2022-12-31T03:04:25.782Z,77.02
2022-12-31T03:06:53.653Z,76.60
2022-12-31T03:09:20.513Z,76.47
2022-12-31T03:12:09.344Z,76.91
2022-12-31T03:14:36.922Z,77.13
2022-12-31T03:17:03.720Z,77.21
2022-12-31T03:19:49.084Z,77.33
2022-12-31T03:22:27.680Z,77.57
2022-12-31T03:25:24.051Z,77.99
2022-12-31T03:27:53.766Z,77.69
2022-12-31T03:30:22.497Z,77.80
2022-12-31T03:32:50.556Z,77.87
2022-12-31T03:35:20.560Z,78.17
2022-12-31T03:37:49.062Z,78.05
2022-12-31T03:40:18.315Z,77.81
2022-12-31T03:42:44.969Z,77.98
2022-12-31T03:45:13.028Z,78.68
2022-12-31T03:47:40.467Z,78.41
2022-12-31T03:50:09.779Z,78.62
2022-12-31T03:52:37.613Z,78.26
2022-12-31T03:55:05.582Z,79.25
2022-12-31T03:57:32.960Z,79.25
2022-12-31T03:59:59.657Z,78.76
2022-12-31T04:02:29.097Z,79.10
2022-12-31T04:04:56.293Z,79.24
2022-12-31T04:07:23.571Z,78.99
2022-12-31T04:09:50.315Z,79.29
2022-12-31T04:12:17.407Z,79.53
2022-12-31T04:14:44.193Z,78.98
2022-12-31T04:17:10.908Z,78.80
2022-12-31T04:19:37.703Z,78.84
2022-12-31T04:22:05.129Z,78.74
2022-12-31T04:24:31.976Z,78.28
2022-12-31T04:27:05.329Z,77.81
2022-12-31T04:29:34.388Z,78.63
2022-12-31T04:32:01.119Z,78.09
2022-12-31T04:34:27.822Z,78.07
2022-12-31T04:36:54.544Z,78.27
2022-12-31T04:39:21.265Z,78.34
2022-12-31T04:41:49.941Z,77.72
2022-12-31T04:44:17.129Z,77.61
2022-12-31T04:46:44.078Z,77.21
2022-12-31T04:49:11.379Z,76.97
2022-12-31T04:51:38.911Z,76.79
2022-12-31T04:54:06.077Z,76.48
2022-12-31T04:56:33.223Z,76.06
2022-12-31T04:59:00.009Z,75.84
2022-12-31T05:01:26.768Z,75.94
2022-12-31T05:03:53.652Z,75.94
2022-12-31T05:06:23.370Z,75.67
2022-12-31T05:08:50.617Z,75.65
2022-12-31T05:11:17.937Z,75.61
2022-12-31T05:13:44.754Z,75.73
2022-12-31T05:16:11.754Z,75.68
2022-12-31T05:18:44.029Z,75.46
2022-12-31T05:21:30.927Z,75.26
2022-12-31T05:24:15.537Z,74.76
2022-12-31T05:26:43.872Z,75.36
2022-12-31T05:29:11.202Z,75.23
2022-12-31T05:31:37.875Z,74.77
2022-12-31T05:34:04.513Z,74.88
2022-12-31T05:36:31.282Z,75.40
2022-12-31T05:38:58.010Z,75.08
2022-12-31T05:41:24.658Z,75.42
2022-12-31T05:43:52.126Z,75.70
2022-12-31T05:46:19.757Z,75.50
2022-12-31T05:48:46.549Z,75.34
2022-12-31T05:51:13.199Z,75.04
2022-12-31T05:53:39.849Z,75.97
2022-12-31T05:56:06.702Z,76.24
2022-12-31T05:58:33.367Z,75.95
2022-12-31T06:01:00.140Z,75.86
2022-12-31T06:03:27.069Z,76.07
2022-12-31T06:05:53.766Z,76.09
2022-12-31T06:08:20.501Z,75.72
2022-12-31T06:10:47.379Z,75.76
2022-12-31T06:13:14.060Z,76.30
2022-12-31T06:15:40.902Z,75.54
2022-12-31T06:18:08.019Z,75.66
2022-12-31T06:20:38.189Z,75.58
2022-12-31T06:23:05.594Z,75.53
2022-12-31T06:25:34.204Z,74.66
2022-12-31T06:28:01.062Z,74.92
2022-12-31T06:30:27.770Z,75.17
2022-12-31T06:32:55.470Z,75.43
2022-12-31T06:35:22.179Z,75.55
2022-12-31T06:37:49.586Z,75.32
2022-12-31T06:40:16.358Z,75.34
2022-12-31T06:42:43.074Z,74.84
2022-12-31T06:45:10.402Z,74.40
2022-12-31T06:47:37.195Z,74.24
2022-12-31T06:50:04.618Z,74.02
2022-12-31T06:52:31.348Z,74.02
2022-12-31T06:54:58.678Z,73.52
2022-12-31T06:57:25.758Z,73.84
2022-12-31T06:59:53.393Z,74.33
2022-12-31T07:02:42.595Z,74.10
2022-12-31T07:05:41.783Z,73.75
2022-12-31T07:08:31.074Z,74.13
2022-12-31T07:11:27.046Z,74.41
2022-12-31T07:14:18.071Z,74.47
2022-12-31T07:16:56.513Z,74.41
2022-12-31T07:19:51.108Z,74.92
2022-12-31T07:22:22.513Z,74.53
2022-12-31T07:24:49.552Z,74.65
2022-12-31T07:28:01.500Z,74.42
2022-12-31T07:30:39.137Z,73.73
2022-12-31T07:33:40.567Z,73.60
2022-12-31T07:36:51.950Z,74.14
2022-12-31T07:40:01.042Z,73.32
2022-12-31T07:42:57.676Z,74.11
2022-12-31T07:45:41.395Z,73.51
2022-12-31T07:48:28.822Z,73.52
2022-12-31T07:50:57.517Z,73.08
2022-12-31T07:53:27.053Z,73.24
2022-12-31T07:55:58.343Z,73.03
2022-12-31T07:58:26.166Z,72.69
2022-12-31T08:00:56.411Z,72.14
2022-12-31T08:04:06.673Z,72.85
2022-12-31T08:06:42.525Z,71.85
2022-12-31T08:09:25.455Z,70.95
2022-12-31T08:12:02.433Z,71.76
2022-12-31T08:14:30.535Z,72.35
2022-12-31T08:16:58.522Z,72.34
2022-12-31T08:19:28.644Z,71.58
2022-12-31T08:22:46.768Z,71.67
2022-12-31T08:25:28.640Z,72.18
2022-12-31T08:28:16.734Z,71.86
2022-12-31T08:31:19.077Z,71.39
2022-12-31T08:34:16.818Z,71.42
2022-12-31T08:36:55.576Z,71.85
2022-12-31T08:39:54.121Z,71.16
2022-12-31T08:42:56.357Z,70.58
2022-12-31T08:45:38.110Z,71.37
2022-12-31T08:48:18.586Z,70.30
2022-12-31T08:50:45.771Z,70.35
2022-12-31T08:53:12.961Z,70.39
2022-12-31T08:55:41.920Z,71.38
2022-12-31T08:58:23.002Z,70.26
2022-12-31T09:00:54.666Z,70.28
2022-12-31T09:03:45.508Z,70.84
2022-12-31T09:06:32.123Z,70.42
2022-12-31T09:09:16.696Z,70.55
2022-12-31T09:12:08.233Z,69.80
2022-12-31T09:15:03.249Z,70.48
2022-12-31T09:17:52.011Z,70.63
2022-12-31T09:20:42.694Z,70.09
2022-12-31T09:23:12.204Z,70.31
2022-12-31T09:25:56.546Z,69.76
2022-12-31T09:28:48.639Z,70.40
2022-12-31T09:31:33.682Z,70.40
2022-12-31T09:34:26.329Z,70.09
2022-12-31T09:37:01.763Z,69.47
2022-12-31T09:39:45.437Z,69.51
2022-12-31T09:42:51.051Z,69.16
2022-12-31T09:45:52.124Z,69.15
2022-12-31T09:49:27.949Z,69.40
2022-12-31T09:52:31.775Z,69.07
2022-12-31T09:55:07.818Z,69.82
2022-12-31T09:57:41.925Z,68.73
2022-12-31T10:00:24.384Z,68.68
2022-12-31T10:03:36.885Z,69.08
2022-12-31T10:06:55.487Z,69.32
2022-12-31T10:09:43.169Z,68.96
2022-12-31T10:12:46.786Z,69.67
2022-12-31T10:15:49.727Z,68.41
2022-12-31T10:19:00.091Z,68.91
2022-12-31T10:21:44.270Z,68.83
2022-12-31T10:24:39.417Z,68.87
2022-12-31T10:27:40.502Z,68.55
2022-12-31T10:30:22.692Z,68.59
2022-12-31T10:33:32.126Z,68.48
2022-12-31T10:36:31.845Z,67.97
2022-12-31T10:39:24.754Z,68.26
2022-12-31T10:42:28.083Z,68.17
2022-12-31T10:45:39.991Z,68.39
2022-12-31T10:48:34.541Z,68.41
2022-12-31T10:51:09.995Z,68.40
2022-12-31T10:54:14.324Z,68.66
2022-12-31T10:57:40.403Z,68.73
2022-12-31T11:00:21.201Z,67.99
2022-12-31T11:03:29.801Z,67.24
2022-12-31T11:06:40.136Z,67.68
2022-12-31T11:09:15.887Z,68.26
2022-12-31T11:12:05.804Z,68.04
2022-12-31T11:14:40.033Z,68.01
2022-12-31T11:17:53.771Z,67.63
2022-12-31T11:20:41.781Z,67.48
2022-12-31T11:23:32.530Z,67.76
2022-12-31T11:26:08.341Z,66.91
2022-12-31T11:29:05.252Z,67.55
2022-12-31T11:31:49.158Z,67.20
2022-12-31T11:34:27.743Z,67.10
2022-12-31T11:37:32.302Z,67.62
2022-12-31T11:40:42.083Z,67.17
2022-12-31T11:43:30.742Z,67.04
2022-12-31T11:46:21.661Z,67.78
2022-12-31T11:49:10.939Z,67.08
2022-12-31T11:52:01.031Z,67.58
2022-12-31T11:54:42.887Z,67.21
2022-12-31T11:57:35.274Z,67.08
2022-12-31T12:00:25.172Z,67.41
2022-12-31T12:02:54.320Z,67.83
2022-12-31T12:05:24.186Z,67.34
2022-12-31T12:07:52.764Z,67.57
2022-12-31T12:10:36.479Z,67.59
2022-12-31T12:13:27.979Z,67.09
2022-12-31T12:16:02.009Z,66.59
2022-12-31T12:18:51.873Z,66.82
2022-12-31T12:21:24.396Z,66.84
2022-12-31T12:24:21.506Z,66.99
2022-12-31T12:26:49.041Z,67.36
2022-12-31T12:29:35.350Z,66.65
2022-12-31T12:32:22.945Z,67.16
2022-12-31T12:34:50.261Z,66.89
2022-12-31T12:37:33.212Z,67.49
2022-12-31T12:40:06.006Z,67.93
2022-12-31T12:42:33.108Z,68.82
2022-12-31T12:45:23.008Z,68.64
2022-12-31T12:47:57.704Z,68.50
2022-12-31T12:50:35.966Z,67.73
2022-12-31T12:53:44.489Z,66.96
2022-12-31T12:56:42.639Z,68.09
2022-12-31T12:59:59.236Z,67.15
2022-12-31T13:02:58.945Z,66.38
2022-12-31T13:05:50.095Z,66.47
2022-12-31T13:08:54.626Z,66.77
2022-12-31T13:11:51.511Z,66.10
2022-12-31T13:14:42.962Z,66.36
2022-12-31T13:17:49.755Z,67.40
2022-12-31T13:20:38.022Z,67.49
2022-12-31T13:23:39.446Z,67.77
2022-12-31T13:26:33.453Z,67.81
2022-12-31T13:29:02.988Z,69.36
2022-12-31T13:31:36.773Z,68.84
2022-12-31T13:34:28.998Z,68.78
2022-12-31T13:37:06.898Z,68.35
2022-12-31T13:39:40.890Z,66.89
2022-12-31T13:42:40.261Z,67.55
2022-12-31T13:45:18.822Z,66.39
2022-12-31T13:47:52.653Z,66.52
2022-12-31T13:51:03.529Z,66.04
2022-12-31T13:53:42.099Z,65.14
2022-12-31T13:56:28.134Z,65.38
2022-12-31T13:59:13.313Z,65.83
2022-12-31T14:02:27.637Z,65.73
2022-12-31T14:05:03.523Z,67.75
2022-12-31T14:07:45.795Z,68.67
2022-12-31T14:10:22.036Z,69.41
2022-12-31T14:13:06.899Z,69.69
2022-12-31T14:15:52.802Z,69.71
2022-12-31T14:18:47.077Z,70.92
2022-12-31T14:21:40.014Z,71.14
2022-12-31T14:24:21.645Z,71.17
2022-12-31T14:26:55.438Z,70.65
2022-12-31T14:29:37.587Z,71.60
2022-12-31T14:32:47.950Z,71.33
2022-12-31T14:35:53.921Z,71.08
2022-12-31T14:38:55.084Z,71.63
2022-12-31T14:41:44.009Z,71.69
2022-12-31T14:44:46.232Z,71.92
2022-12-31T14:47:27.324Z,71.98
2022-12-31T14:50:11.220Z,72.11
2022-12-31T14:52:59.812Z,72.13
2022-12-31T14:55:33.655Z,72.82
2022-12-31T15:01:01.169Z,72.68
2022-12-31T15:03:30.833Z,72.65
2022-12-31T15:06:11.940Z,72.88
2022-12-31T15:09:26.667Z,73.21
2022-12-31T15:12:33.432Z,73.19
2022-12-31T15:15:25.009Z,73.93
2022-12-31T15:18:27.014Z,73.79
2022-12-31T15:21:28.146Z,74.13
2022-12-31T15:23:55.506Z,73.54
2022-12-31T15:26:27.148Z,73.49
2022-12-31T15:29:03.990Z,73.52
2022-12-31T15:31:34.629Z,73.41
2022-12-31T15:34:05.138Z,73.40
2022-12-31T15:36:38.938Z,73.32
2022-12-31T15:39:10.722Z,72.67
2022-12-31T15:42:18.620Z,72.69
2022-12-31T15:44:50.747Z,71.87
2022-12-31T15:47:30.800Z,71.54
2022-12-31T15:50:03.722Z,71.44
2022-12-31T15:52:42.574Z,70.88
2022-12-31T15:55:25.755Z,71.23
2022-12-31T15:57:58.631Z,71.79
2022-12-31T16:00:28.586Z,71.75
2022-12-31T16:02:55.995Z,71.09
2022-12-31T16:05:26.673Z,71.04
2022-12-31T16:07:58.518Z,71.11
2022-12-31T16:10:30.459Z,70.24
2022-12-31T16:12:58.759Z,70.07
2022-12-31T16:15:32.756Z,70.08
2022-12-31T16:18:02.118Z,69.98
2022-12-31T16:20:32.124Z,69.59
2022-12-31T16:23:03.479Z,69.42
2022-12-31T16:25:37.067Z,68.97
2022-12-31T16:28:04.065Z,69.15
2022-12-31T16:30:33.521Z,68.44
2022-12-31T16:33:06.057Z,68.55
2022-12-31T16:35:36.953Z,68.03
2022-12-31T16:38:15.397Z,67.21
2022-12-31T16:41:01.790Z,67.90
2022-12-31T16:43:41.981Z,67.76
2022-12-31T16:46:09.083Z,66.76
2022-12-31T16:48:36.803Z,66.73
2022-12-31T16:51:04.131Z,66.76
2022-12-31T16:53:36.778Z,66.90
2022-12-31T16:56:11.203Z,66.82
2022-12-31T16:58:42.729Z,67.31
2022-12-31T17:01:17.062Z,67.47
2022-12-31T17:03:49.247Z,67.68
2022-12-31T17:06:20.007Z,67.69
2022-12-31T17:09:15.362Z,67.53
2022-12-31T17:11:45.350Z,67.35
2022-12-31T17:14:16.361Z,66.82
2022-12-31T17:17:02.630Z,66.74
2022-12-31T17:19:36.406Z,67.16
2022-12-31T17:22:19.989Z,67.07
2022-12-31T17:24:50.043Z,66.90
2022-12-31T17:27:17.482Z,67.05
2022-12-31T17:29:44.194Z,66.70
2022-12-31T17:32:37.476Z,66.53
2022-12-31T17:35:31.032Z,65.30
2022-12-31T17:38:22.947Z,64.69
2022-12-31T17:41:04.160Z,64.87
2022-12-31T17:43:35.498Z,64.12
2022-12-31T17:46:10.144Z,63.63
2022-12-31T17:48:37.459Z,63.39
2022-12-31T17:51:04.545Z,62.95
2022-12-31T17:53:31.199Z,62.74
2022-12-31T17:56:03.706Z,62.19
2022-12-31T17:58:38.441Z,62.45
2022-12-31T18:01:07.703Z,62.51
2022-12-31T18:03:34.590Z,62.05
2022-12-31T18:06:01.998Z,62.34
2022-12-31T18:08:28.994Z,62.33
2022-12-31T18:10:55.727Z,62.24
2022-12-31T18:13:29.695Z,62.00
2022-12-31T18:15:56.430Z,62.38
2022-12-31T18:18:25.847Z,62.93
2022-12-31T18:20:58.054Z,62.54
2022-12-31T18:23:46.235Z,63.27
2022-12-31T18:26:19.666Z,63.00
2022-12-31T18:28:47.006Z,62.36
2022-12-31T18:31:22.544Z,63.25
2022-12-31T18:33:50.649Z,62.83
2022-12-31T18:36:19.958Z,62.75
2022-12-31T18:38:46.710Z,62.33
2022-12-31T18:41:29.388Z,62.19
2022-12-31T18:43:56.267Z,62.27
2022-12-31T18:46:25.240Z,63.62
2022-12-31T18:48:52.077Z,63.88
2022-12-31T18:51:29.321Z,64.05
2022-12-31T18:53:59.065Z,64.39
2022-12-31T18:56:26.073Z,64.26
2022-12-31T18:58:52.797Z,64.01
2022-12-31T19:01:35.532Z,63.76
2022-12-31T19:04:14.183Z,64.10
2022-12-31T19:06:41.777Z,64.59
2022-12-31T19:09:23.725Z,63.77
2022-12-31T19:11:56.029Z,63.42
2022-12-31T19:14:25.770Z,62.89
2022-12-31T19:16:54.307Z,62.69
2022-12-31T19:19:21.548Z,63.06
2022-12-31T19:21:48.344Z,63.28
2022-12-31T19:24:23.385Z,62.25
2022-12-31T19:26:51.009Z,62.03
2022-12-31T19:29:27.070Z,61.50
2022-12-31T19:31:54.750Z,60.50
2022-12-31T19:34:21.554Z,60.59
2022-12-31T19:36:48.244Z,60.17
2022-12-31T19:39:18.516Z,59.00
2022-12-31T19:41:46.000Z,59.28
2022-12-31T19:44:18.494Z,58.30
2022-12-31T19:46:46.525Z,58.75
2022-12-31T19:49:14.511Z,57.73
2022-12-31T19:51:42.244Z,57.63
2022-12-31T19:54:12.054Z,58.14
2022-12-31T19:56:38.747Z,56.59
2022-12-31T19:59:06.656Z,55.66
2022-12-31T20:01:33.504Z,56.14
2022-12-31T20:04:00.811Z,56.00
2022-12-31T20:06:27.581Z,54.89
2022-12-31T20:08:54.313Z,55.80
2022-12-31T20:11:24.029Z,54.92
2022-12-31T20:13:53.671Z,55.13
2022-12-31T20:16:24.406Z,54.03
2022-12-31T20:18:51.499Z,53.61
2022-12-31T20:21:22.162Z,53.55
2022-12-31T20:23:50.772Z,52.88
2022-12-31T20:26:19.040Z,53.58
2022-12-31T20:28:46.306Z,51.82
2022-12-31T20:31:18.446Z,52.65
2022-12-31T20:33:45.692Z,51.82
2022-12-31T20:36:15.235Z,51.47
2022-12-31T20:38:42.164Z,51.48
2022-12-31T20:41:18.096Z,50.82
2022-12-31T20:43:45.537Z,50.24
2022-12-31T20:46:19.415Z,50.45
2022-12-31T20:48:47.949Z,50.45
2022-12-31T20:51:16.474Z,50.08
2022-12-31T20:53:49.635Z,50.71
2022-12-31T20:56:17.297Z,50.17
2022-12-31T20:58:44.670Z,50.37
2022-12-31T21:01:11.867Z,51.25
2022-12-31T21:06:29.783Z,52.15
2022-12-31T21:08:59.180Z,50.37
2022-12-31T21:11:45.324Z,51.00
2022-12-31T21:14:12.085Z,50.11
2022-12-31T21:16:39.084Z,50.00
2022-12-31T21:19:05.986Z,50.72
2022-12-31T21:21:32.661Z,51.63
2022-12-31T21:23:59.327Z,50.55
2022-12-31T21:26:26.004Z,50.73
2022-12-31T21:28:53.634Z,51.13
2022-12-31T21:31:20.425Z,51.14
2022-12-31T21:33:48.384Z,51.07
2022-12-31T21:36:16.045Z,50.61
2022-12-31T21:38:43.745Z,51.07
2022-12-31T21:41:34.834Z,51.23
2022-12-31T21:44:02.842Z,52.11
2022-12-31T21:46:30.401Z,51.74
2022-12-31T21:48:58.989Z,52.33
2022-12-31T21:51:26.447Z,52.03
2022-12-31T21:53:53.151Z,51.75
2022-12-31T21:56:21.277Z,51.70
2022-12-31T21:59:13.683Z,51.71
2022-12-31T22:01:59.523Z,51.73
2022-12-31T22:07:12.996Z,51.51
2022-12-31T22:09:39.789Z,51.58
2022-12-31T22:12:06.680Z,51.80
2022-12-31T22:14:33.408Z,51.21
2022-12-31T22:17:00.042Z,51.09
2022-12-31T22:19:26.771Z,51.48
2022-12-31T22:21:53.478Z,51.70
2022-12-31T22:24:20.137Z,51.99
2022-12-31T22:26:47.062Z,51.04
2022-12-31T22:29:14.083Z,52.08
2022-12-31T22:31:40.819Z,51.83
2022-12-31T22:34:07.694Z,52.03
2022-12-31T22:36:34.470Z,50.64
2022-12-31T22:39:01.163Z,51.70
2022-12-31T22:41:28.852Z,52.19
2022-12-31T22:44:03.709Z,51.29
2022-12-31T22:46:32.397Z,51.65
2022-12-31T22:49:01.888Z,51.73
2022-12-31T22:51:54.711Z,51.25
2022-12-31T22:54:17.180Z,50.74
2022-12-31T22:56:43.851Z,51.25
2022-12-31T22:59:10.900Z,50.85
2022-12-31T23:01:37.777Z,50.20
2022-12-31T23:04:05.417Z,50.79
2022-12-31T23:06:32.342Z,50.25
2022-12-31T23:09:18.215Z,51.34
2022-12-31T23:11:44.876Z,50.47
2022-12-31T23:14:35.545Z,50.64
2022-12-31T23:17:31.401Z,48.64
2022-12-31T23:20:18.513Z,49.34
2022-12-31T23:23:05.370Z,49.57
2022-12-31T23:25:38.276Z,49.37
2022-12-31T23:28:06.363Z,50.01
2022-12-31T23:30:33.205Z,49.35
2022-12-31T23:33:00.207Z,49.43
2022-12-31T23:35:27.034Z,49.04
2022-12-31T23:37:53.729Z,49.84
2022-12-31T23:40:21.811Z,49.71
2022-12-31T23:42:49.994Z,49.50
2022-12-31T23:45:16.830Z,49.13
2022-12-31T23:47:43.621Z,48.22
2022-12-31T23:50:10.434Z,48.49
2022-12-31T23:52:37.141Z,48.60
2022-12-31T23:55:04.302Z,48.93
2022-12-31T23:57:31.107Z,48.61
2022-12-31T23:59:57.801Z,49.62
